Time;durP1;ratioP1;P1;durP2;ratioP2;P2;SDS_P1;SDS_P2;PMS_P1;PMS_P2;Temp;Humidity;BMP_temperature;BMP_pressure;BME280_temperature;BME280_humidity;BME280_pressure;Samples;Min_cycle;Max_cycle;Signal;HPM_P1;HPM_P2
2022/12/15 00:39:11;;;;;;;1.23;1.15;;;-0.30;99.90;;;;;;5029655;28;20869;-63
2022/12/15 00:41:37;;;;;;;0.10;0.10;;;-0.40;99.90;;;;;;5026238;28;20189;-63
2022/12/15 00:44:03;;;;;;;0.20;0.20;;;-0.50;99.90;;;;;;5017294;28;20049;-63
2022/12/15 01:22:06;;;;;;;0.20;0.20;;;-0.40;99.90;;;;;;5027660;28;20053;-63
2022/12/15 01:24:32;;;;;;;0.30;0.30;;;-0.40;99.90;;;;;;5029092;28;20409;-64
2022/12/15 01:26:58;;;;;;;0.10;0.10;;;-0.20;99.90;;;;;;5028165;28;20049;-63
2022/12/15 01:29:24;;;;;;;0.10;0.10;;;-0.20;99.90;;;;;;5028526;28;20049;-64
2022/12/15 01:31:50;;;;;;;0.20;0.20;;;-0.30;99.90;;;;;;5028988;28;20492;-64
2022/12/15 01:34:16;;;;;;;1.25;0.75;;;-0.30;99.90;;;;;;5028214;28;20073;-63
2022/12/15 01:36:41;;;;;;;0.20;0.20;;;-0.20;99.90;;;;;;5026867;28;20413;-63
2022/12/15 01:39:07;;;;;;;0.15;0.15;;;-0.20;99.90;;;;;;5028124;28;20048;-63
2022/12/15 01:41:32;;;;;;;0.20;0.20;;;-0.30;99.90;;;;;;5028220;28;20130;-63
2022/12/15 01:44:19;;;;;;;3.10;2.47;;;-0.10;99.90;;;;;;5023380;28;20128;-64
2022/12/15 01:46:47;;;;;;;0.10;0.10;;;0.00;99.90;;;;;;5028602;28;20042;-64
2022/12/15 01:49:15;;;;;;;0.20;0.20;;;0.00;99.90;;;;;;5023402;28;20413;-64
2022/12/15 01:51:45;;;;;;;0.20;0.20;;;0.00;99.90;;;;;;5028280;28;20084;-64
2022/12/15 01:54:24;;;;;;;0.15;0.15;;;0.20;99.90;;;;;;5028703;28;20627;-63
2022/12/15 01:56:54;;;;;;;0.20;0.20;;;0.30;99.90;;;;;;5029229;28;20617;-63
2022/12/15 01:59:26;;;;;;;0.13;0.13;;;0.30;99.90;;;;;;5029040;28;20597;-64
2022/12/15 02:01:51;;;;;;;1.65;1.27;;;0.40;99.90;;;;;;5029224;28;20053;-63
2022/12/15 02:04:19;;;;;;;0.20;0.20;;;0.40;99.90;;;;;;5029396;28;20046;-64
2022/12/15 02:06:45;;;;;;;0.20;0.20;;;0.30;99.90;;;;;;5028163;28;20072;-64
2022/12/15 02:09:11;;;;;;;0.13;0.13;;;0.30;99.90;;;;;;5029273;28;20485;-64
2022/12/15 02:11:39;;;;;;;0.20;0.20;;;0.30;99.90;;;;;;5028968;28;20054;-64
2022/12/15 02:14:08;;;;;;;0.10;0.10;;;0.30;99.90;;;;;;5027267;28;20132;-64
2022/12/15 02:16:49;;;;;;;0.20;0.20;;;0.40;99.90;;;;;;5024711;28;20050;-64
2022/12/15 02:19:43;;;;;;;0.20;0.20;;;0.40;99.90;;;;;;5009192;28;20108;-64
2022/12/15 02:22:40;;;;;;;0.10;0.10;;;0.30;99.90;;;;;;5027995;28;20470;-64
2022/12/15 02:25:30;;;;;;;0.10;0.10;;;0.20;99.90;;;;;;5026681;28;20041;-64
2022/12/15 02:28:19;;;;;;;0.10;0.10;;;0.10;99.90;;;;;;5027583;28;20038;-64
2022/12/15 02:33:56;;;;;;;0.25;0.25;;;-0.10;99.90;;;;;;5026976;28;20049;-64
2022/12/15 02:36:27;;;;;;;0.13;0.13;;;0.00;99.90;;;;;;5029173;28;20045;-64
2022/12/15 02:38:53;;;;;;;0.10;0.10;;;0.10;99.90;;;;;;5027602;28;20119;-64
2022/12/15 02:41:37;;;;;;;0.10;0.10;;;0.10;99.90;;;;;;5028162;28;20080;-64
2022/12/15 02:44:18;;;;;;;0.20;0.20;;;0.10;99.90;;;;;;5028586;28;20099;-64
2022/12/15 02:47:14;;;;;;;0.20;0.20;;;0.20;99.90;;;;;;5026718;28;20053;-64
2022/12/15 02:49:45;;;;;;;0.20;0.20;;;0.30;99.90;;;;;;5028536;28;20099;-64
2022/12/15 02:52:24;;;;;;;0.13;0.13;;;0.40;99.90;;;;;;5025358;28;20045;-65
2022/12/15 02:55:08;;;;;;;0.20;0.20;;;0.40;99.90;;;;;;5023105;28;20037;-65
2022/12/15 02:57:36;;;;;;;0.13;0.13;;;0.30;99.90;;;;;;5027654;28;20068;-65
2022/12/15 03:00:07;;;;;;;0.20;0.20;;;0.20;99.90;;;;;;5027248;28;20528;-64
2022/12/15 03:02:36;;;;;;;0.20;0.20;;;0.10;99.90;;;;;;5026270;28;20126;-65
2022/12/15 03:05:02;;;;;;;0.10;0.10;;;0.00;99.90;;;;;;5026006;28;20042;-65
2022/12/15 03:07:28;;;;;;;0.20;0.20;;;-0.10;99.90;;;;;;5026300;28;20049;-65
2022/12/15 03:10:04;;;;;;;0.10;0.10;;;-0.10;99.90;;;;;;5026476;28;20045;-65
2022/12/15 03:12:29;;;;;;;0.20;0.20;;;-0.10;99.90;;;;;;5026090;28;20045;-65
2022/12/15 03:14:55;;;;;;;0.20;0.20;;;-0.20;99.90;;;;;;5025919;28;20041;-65
2022/12/15 03:17:20;;;;;;;0.20;0.20;;;-0.20;99.90;;;;;;5027953;28;20041;-65
2022/12/15 03:19:46;;;;;;;0.10;0.10;;;-0.20;99.90;;;;;;5027188;28;20048;-65
2022/12/15 03:22:11;;;;;;;0.10;0.10;;;-0.30;99.90;;;;;;5025268;28;20045;-65
2022/12/15 03:24:37;;;;;;;0.10;0.10;;;-0.20;99.90;;;;;;5026193;28;20041;-64
2022/12/15 03:27:03;;;;;;;0.20;0.20;;;-0.20;99.90;;;;;;5025481;28;20037;-65
2022/12/15 03:29:29;;;;;;;0.20;0.20;;;-0.30;99.90;;;;;;5025638;28;20099;-65
2022/12/15 03:31:54;;;;;;;0.20;0.20;;;-0.30;99.90;;;;;;5024801;28;20136;-64
2022/12/15 03:34:20;;;;;;;0.20;0.20;;;-0.30;99.90;;;;;;5027066;28;20038;-65
2022/12/15 03:36:46;;;;;;;0.20;0.20;;;-0.20;99.90;;;;;;5026728;28;20046;-64
2022/12/15 03:39:11;;;;;;;0.10;0.10;;;-0.10;99.90;;;;;;5026256;28;20155;-64
2022/12/15 03:41:37;;;;;;;0.20;0.20;;;0.00;99.90;;;;;;5025944;28;20064;-64
2022/12/15 03:44:03;;;;;;;0.20;0.20;;;0.20;99.90;;;;;;5026830;28;20107;-65
2022/12/15 03:46:29;;;;;;;0.15;0.15;;;0.20;99.90;;;;;;5025982;28;20137;-65
2022/12/15 03:48:54;;;;;;;0.10;0.10;;;0.30;99.90;;;;;;5026229;28;20477;-64
2022/12/15 03:51:20;;;;;;;0.10;0.10;;;0.30;99.90;;;;;;5027194;28;20063;-64
2022/12/15 03:53:48;;;;;;;0.15;0.15;;;0.30;99.90;;;;;;5024782;28;20048;-65
2022/12/15 03:56:15;;;;;;;0.20;0.20;;;0.20;99.90;;;;;;5027108;28;20143;-65
2022/12/15 03:58:41;;;;;;;0.20;0.20;;;0.20;99.90;;;;;;5030001;28;20044;-65
2022/12/15 04:01:22;;;;;;;0.20;0.20;;;0.20;99.90;;;;;;5029175;28;20033;-64
2022/12/15 04:03:47;;;;;;;0.20;0.20;;;0.20;99.90;;;;;;5024562;28;20489;-65
2022/12/15 04:06:13;;;;;;;0.20;0.20;;;0.10;99.90;;;;;;5029832;28;20112;-65
2022/12/15 04:08:38;;;;;;;0.15;0.15;;;0.10;99.90;;;;;;5031035;28;20099;-65
2022/12/15 04:11:04;;;;;;;0.10;0.10;;;0.00;99.90;;;;;;5025861;28;20121;-64
2022/12/15 04:13:29;;;;;;;0.20;0.20;;;-0.10;99.90;;;;;;5025493;28;20485;-65
2022/12/15 04:15:55;;;;;;;0.10;0.10;;;-0.10;99.90;;;;;;5029254;28;20860;-65
2022/12/15 04:18:21;;;;;;;0.20;0.20;;;-0.10;99.90;;;;;;5030666;28;20377;-65
2022/12/15 04:20:46;;;;;;;0.20;0.20;;;-0.10;99.90;;;;;;5029585;28;20048;-64
2022/12/15 04:23:12;;;;;;;0.20;0.20;;;-0.10;99.90;;;;;;5029126;28;20489;-65
2022/12/15 05:31:51;;;;;;;0.20;0.20;;;0.40;99.90;;;;;;5026676;28;20107;-65
2022/12/15 05:34:42;;;;;;;0.20;0.20;;;0.40;99.90;;;;;;5027701;28;20087;-65
2022/12/15 05:37:08;;;;;;;0.10;0.10;;;0.50;99.90;;;;;;5021167;28;20049;-65
2022/12/15 05:39:34;;;;;;;0.10;0.10;;;0.50;99.90;;;;;;5027949;28;20044;-65
2022/12/15 05:42:00;;;;;;;0.17;0.17;;;0.50;99.90;;;;;;5029574;28;20082;-65
2022/12/15 05:44:26;;;;;;;0.15;0.15;;;0.50;99.90;;;;;;5029390;28;20128;-65
2022/12/15 05:46:52;;;;;;;0.20;0.20;;;0.50;99.90;;;;;;5029853;28;20053;-65
2022/12/15 05:49:18;;;;;;;0.10;0.10;;;0.50;99.90;;;;;;5029163;28;20051;-65
2022/12/15 05:51:46;;;;;;;0.10;0.10;;;0.50;99.90;;;;;;5027821;28;20045;-62
2022/12/15 05:54:16;;;;;;;0.10;0.10;;;0.50;99.90;;;;;;5030384;28;20421;-62
2022/12/15 05:56:43;;;;;;;0.10;0.10;;;0.60;99.90;;;;;;5028476;28;20382;-62
2022/12/15 05:59:08;;;;;;;0.13;0.13;;;0.60;99.90;;;;;;5030054;28;20042;-62
2022/12/15 06:01:35;;;;;;;0.10;0.10;;;0.60;99.90;;;;;;5028621;28;20095;-62
2022/12/15 06:04:00;;;;;;;0.20;0.20;;;0.60;99.90;;;;;;5028029;28;20060;-62
2022/12/15 06:06:26;;;;;;;0.20;0.20;;;0.60;99.90;;;;;;5028637;28;20045;-62
2022/12/15 06:08:52;;;;;;;0.10;0.10;;;0.60;99.90;;;;;;5029833;28;20033;-62
2022/12/15 06:11:19;;;;;;;0.20;0.20;;;0.60;99.90;;;;;;5029511;28;20087;-62
2022/12/15 06:13:45;;;;;;;1.80;1.33;;;0.70;99.90;;;;;;5028308;28;20085;-63
2022/12/15 06:16:19;;;;;;;0.20;0.20;;;0.60;99.90;;;;;;5028981;28;20080;-65
2022/12/15 06:18:49;;;;;;;0.20;0.20;;;0.70;99.90;;;;;;5028862;28;20128;-65
2022/12/15 06:21:16;;;;;;;0.20;0.20;;;0.60;99.90;;;;;;5023231;28;20512;-65
2022/12/15 06:23:43;;;;;;;0.20;0.20;;;0.60;99.90;;;;;;5025000;28;20419;-65
2022/12/15 06:26:13;;;;;;;0.13;0.13;;;0.70;99.90;;;;;;5028362;28;20076;-65
2022/12/15 06:28:40;;;;;;;0.20;0.20;;;0.70;99.90;;;;;;5028614;28;20654;-62
2022/12/15 06:31:08;;;;;;;0.20;0.20;;;0.70;99.90;;;;;;5025224;28;20041;-62
2022/12/15 06:33:35;;;;;;;0.20;0.20;;;0.70;99.90;;;;;;5027569;28;20103;-63
2022/12/15 06:36:09;;;;;;;0.20;0.20;;;0.80;99.90;;;;;;5027818;28;20103;-62
2022/12/15 06:38:36;;;;;;;0.10;0.10;;;0.80;99.90;;;;;;5013655;28;20053;-62
2022/12/15 06:41:04;;;;;;;0.10;0.10;;;0.80;99.90;;;;;;5027128;28;20041;-62
2022/12/15 06:43:31;;;;;;;0.20;0.20;;;0.80;99.90;;;;;;5027842;28;20045;-62
2022/12/15 06:45:58;;;;;;;0.20;0.20;;;0.80;99.90;;;;;;5025470;28;20455;-62
2022/12/15 06:48:24;;;;;;;0.20;0.20;;;0.90;99.90;;;;;;5027500;28;20238;-63
2022/12/15 06:50:50;;;;;;;0.10;0.10;;;0.80;99.90;;;;;;5020776;28;20569;-62
2022/12/15 06:53:18;;;;;;;0.22;0.22;;;0.90;99.90;;;;;;5026722;28;20041;-63
2022/12/15 06:55:44;;;;;;;0.10;0.10;;;0.80;99.90;;;;;;5028134;28;20120;-63
2022/12/15 06:58:11;;;;;;;0.10;0.10;;;0.90;99.90;;;;;;5027299;28;20076;-62
2022/12/15 07:00:37;;;;;;;0.10;0.10;;;0.90;99.90;;;;;;5027397;28;20052;-62
2022/12/15 07:03:06;;;;;;;0.20;0.20;;;0.90;99.90;;;;;;5028596;28;20480;-63
2022/12/15 07:05:31;;;;;;;0.20;0.20;;;0.90;99.90;;;;;;5027805;28;20231;-63
2022/12/15 07:07:57;;;;;;;0.20;0.20;;;0.90;99.90;;;;;;5023895;28;20048;-63
2022/12/15 07:10:22;;;;;;;0.10;0.10;;;1.00;99.90;;;;;;5027985;28;20481;-63
2022/12/15 07:12:48;;;;;;;0.20;0.20;;;1.00;99.90;;;;;;5026853;28;20053;-63
2022/12/15 07:15:13;;;;;;;0.10;0.10;;;1.00;99.90;;;;;;5028549;28;20045;-63
2022/12/15 07:17:39;;;;;;;0.17;0.17;;;1.00;99.90;;;;;;5026316;28;20554;-63
2022/12/15 07:20:06;;;;;;;0.17;0.17;;;1.00;99.90;;;;;;5026194;28;20076;-63
2022/12/15 07:22:31;;;;;;;0.10;0.10;;;1.10;99.90;;;;;;5023963;28;20168;-63
2022/12/15 07:24:57;;;;;;;0.20;0.20;;;1.00;99.90;;;;;;5023902;28;20464;-63
2022/12/15 07:27:23;;;;;;;0.13;0.13;;;1.10;99.90;;;;;;5024667;28;20037;-63
2022/12/15 07:29:48;;;;;;;0.10;0.10;;;1.10;99.90;;;;;;5028102;28;20424;-63
2022/12/15 07:32:17;;;;;;;0.20;0.20;;;1.10;99.90;;;;;;5027316;28;20048;-62
2022/12/15 07:34:43;;;;;;;0.10;0.10;;;1.10;99.90;;;;;;5031955;28;20409;-63
2022/12/15 07:37:09;;;;;;;0.30;0.30;;;1.20;99.90;;;;;;5030524;28;20045;-63
2022/12/15 07:39:35;;;;;;;0.55;0.55;;;1.20;99.90;;;;;;5032640;28;20044;-63
2022/12/15 07:42:00;;;;;;;0.20;0.20;;;1.20;99.90;;;;;;5030176;28;20100;-63
2022/12/15 07:44:27;;;;;;;0.10;0.10;;;1.30;99.90;;;;;;5031922;28;20421;-63
2022/12/15 07:46:53;;;;;;;0.10;0.10;;;1.30;99.90;;;;;;5029198;28;20068;-63
2022/12/15 07:49:19;;;;;;;0.10;0.10;;;1.30;99.90;;;;;;5027777;28;20045;-63
2022/12/15 07:51:45;;;;;;;0.10;0.10;;;1.20;99.90;;;;;;5029640;28;20046;-63
2022/12/15 07:54:12;;;;;;;0.10;0.10;;;1.20;99.90;;;;;;5031452;28;20038;-63
2022/12/15 07:56:38;;;;;;;0.10;0.10;;;1.20;99.90;;;;;;5029891;28;20136;-63
2022/12/15 07:59:05;;;;;;;0.10;0.10;;;1.20;99.90;;;;;;5030869;28;20049;-63
2022/12/15 08:01:31;;;;;;;0.10;0.10;;;1.10;99.90;;;;;;5032300;28;20338;-63
2022/12/15 08:03:57;;;;;;;0.22;0.22;;;1.10;99.90;;;;;;5030842;28;20461;-63
2022/12/15 08:06:23;;;;;;;0.10;0.10;;;1.10;99.90;;;;;;5046419;28;20124;-63
2022/12/15 08:08:49;;;;;;;0.10;0.10;;;1.20;99.90;;;;;;5031906;28;20068;-63
2022/12/15 08:11:15;;;;;;;0.30;0.30;;;1.30;99.90;;;;;;5028465;28;20473;-63
2022/12/15 08:13:42;;;;;;;0.10;0.10;;;1.30;99.90;;;;;;5031957;28;20290;-63
2022/12/15 08:16:08;;;;;;;0.20;0.20;;;1.40;99.90;;;;;;5031171;28;20527;-63
2022/12/15 08:18:34;;;;;;;0.20;0.20;;;1.40;99.90;;;;;;5026682;28;20045;-63
2022/12/15 08:21:07;;;;;;;0.20;0.20;;;1.30;99.90;;;;;;5030551;28;20045;-63
2022/12/15 08:23:33;;;;;;;3.97;1.17;;;1.30;99.90;;;;;;5029383;28;20077;-63
2022/12/15 08:26:14;;;;;;;0.10;0.10;;;1.20;99.90;;;;;;5031044;28;20566;-63
2022/12/15 08:28:40;;;;;;;0.57;0.57;;;1.20;99.90;;;;;;5030603;28;20049;-63
2022/12/15 08:31:15;;;;;;;3.63;2.00;;;1.20;99.90;;;;;;5030799;28;20041;-63
2022/12/15 08:33:42;;;;;;;0.10;0.10;;;1.20;99.90;;;;;;5030499;28;20049;-63
2022/12/15 08:36:11;;;;;;;0.10;0.10;;;1.30;99.90;;;;;;5031147;28;20131;-63
2022/12/15 08:38:38;;;;;;;0.10;0.10;;;1.20;99.90;;;;;;5030620;28;20084;-63
2022/12/15 08:41:08;;;;;;;0.30;0.30;;;1.30;99.90;;;;;;5027355;28;20041;-63
2022/12/15 08:43:34;;;;;;;0.10;0.10;;;1.30;99.90;;;;;;5029914;28;20124;-63
2022/12/15 08:46:00;;;;;;;0.20;0.20;;;1.30;99.90;;;;;;5019853;28;20142;-63
2022/12/15 08:48:25;;;;;;;0.20;0.20;;;1.30;99.90;;;;;;5009882;28;20042;-63
2022/12/15 08:50:53;;;;;;;0.10;0.10;;;1.30;99.90;;;;;;5010190;28;20033;-63
2022/12/15 08:53:19;;;;;;;0.20;0.20;;;1.30;99.90;;;;;;5010138;28;20057;-63
2022/12/15 08:55:44;;;;;;;0.20;0.20;;;1.30;99.90;;;;;;5007923;28;20121;-63
2022/12/15 08:58:10;;;;;;;0.10;0.10;;;1.30;99.90;;;;;;5011011;28;20038;-63
2022/12/15 09:00:35;;;;;;;0.10;0.10;;;1.30;99.90;;;;;;5010373;28;20050;-63
2022/12/15 09:03:01;;;;;;;0.10;0.10;;;1.30;99.90;;;;;;5006705;28;20046;-63
2022/12/15 09:05:26;;;;;;;0.10;0.10;;;1.40;99.90;;;;;;5010235;28;20485;-63
2022/12/15 09:07:55;;;;;;;0.10;0.10;;;1.50;99.90;;;;;;5008253;28;20088;-63
2022/12/15 09:10:22;;;;;;;0.10;0.10;;;1.60;99.90;;;;;;5009379;28;20046;-63
2022/12/15 09:12:48;;;;;;;0.10;0.10;;;1.80;99.90;;;;;;5009786;28;20088;-64
2022/12/15 09:15:14;;;;;;;12.20;4.07;;;1.80;99.90;;;;;;5010717;28;20485;-64
2022/12/15 09:17:39;;;;;;;0.10;0.10;;;1.90;99.90;;;;;;5009770;28;20125;-64
2022/12/15 09:20:06;;;;;;;0.10;0.10;;;2.00;99.90;;;;;;5009494;28;20486;-64
2022/12/15 09:22:31;;;;;;;0.10;0.10;;;2.00;99.90;;;;;;5008254;28;20057;-64
2022/12/15 09:24:57;;;;;;;0.98;0.98;;;2.00;99.90;;;;;;5008540;28;20065;-65
2022/12/15 09:27:22;;;;;;;0.20;0.20;;;2.00;99.90;;;;;;5009766;28;20042;-64
2022/12/15 09:29:48;;;;;;;0.20;0.20;;;2.00;99.90;;;;;;5009396;28;20046;-65
2022/12/15 09:32:13;;;;;;;0.10;0.10;;;2.10;99.90;;;;;;5009278;28;20112;-64
2022/12/15 09:34:39;;;;;;;0.15;0.15;;;2.10;99.90;;;;;;5008804;28;20065;-64
2022/12/15 09:37:05;;;;;;;0.55;0.55;;;2.10;99.90;;;;;;5008506;28;20041;-64
2022/12/15 09:39:31;;;;;;;0.30;0.30;;;2.10;99.90;;;;;;5008521;28;20045;-63
2022/12/15 09:41:59;;;;;;;0.20;0.20;;;2.10;99.90;;;;;;5004173;28;20050;-63
2022/12/15 09:44:27;;;;;;;0.20;0.20;;;2.10;99.90;;;;;;5007228;28;20075;-63
2022/12/15 09:47:11;;;;;;;1.55;1.20;;;2.20;99.90;;;;;;5025130;28;20401;-63
2022/12/15 09:49:54;;;;;;;0.38;0.38;;;2.20;99.90;;;;;;5027941;28;20042;-63
2022/12/15 09:52:44;;;;;;;0.10;0.10;;;2.30;99.90;;;;;;5029361;28;20038;-63
2022/12/15 09:55:36;;;;;;;0.10;0.10;;;2.30;99.90;;;;;;5016335;28;20049;-63
2022/12/15 09:58:41;;;;;;;0.10;0.10;;;2.40;99.90;;;;;;5025667;28;20119;-63
2022/12/15 10:01:20;;;;;;;0.10;0.10;;;2.40;99.90;;;;;;5026697;28;20061;-63
2022/12/15 10:04:06;;;;;;;0.20;0.20;;;2.50;99.90;;;;;;5027936;28;20512;-63
2022/12/15 10:06:50;;;;;;;0.20;0.20;;;2.60;99.90;;;;;;5029920;28;20151;-63
2022/12/15 10:09:28;;;;;;;0.10;0.10;;;2.80;99.90;;;;;;5028527;28;20386;-63
2022/12/15 10:12:15;;;;;;;0.40;0.40;;;2.80;99.90;;;;;;5028183;28;20620;-63
2022/12/15 10:14:48;;;;;;;0.10;0.10;;;2.90;99.90;;;;;;5027286;28;20386;-63
2022/12/15 10:17:26;;;;;;;0.10;0.10;;;2.90;99.90;;;;;;5027309;28;20051;-63
2022/12/15 10:20:05;;;;;;;0.10;0.10;;;2.90;99.90;;;;;;5029177;28;20440;-63
2022/12/15 10:22:36;;;;;;;0.10;0.10;;;2.90;99.90;;;;;;5028429;28;20052;-63
2022/12/15 10:25:13;;;;;;;0.10;0.10;;;2.90;99.90;;;;;;5027369;28;20437;-63
2022/12/15 10:28:15;;;;;;;0.10;0.10;;;2.90;99.90;;;;;;5028987;28;20108;-63
2022/12/15 10:30:52;;;;;;;0.40;0.40;;;2.90;99.90;;;;;;5026738;28;20053;-63
2022/12/15 10:33:19;;;;;;;0.10;0.10;;;3.00;99.90;;;;;;5028181;28;20050;-61
2022/12/15 10:35:46;;;;;;;0.80;0.75;;;2.90;99.90;;;;;;5028996;28;20041;-61
2022/12/15 10:38:23;;;;;;;0.10;0.10;;;3.00;99.90;;;;;;5027527;28;20045;-62
2022/12/15 10:41:01;;;;;;;0.10;0.10;;;3.00;99.90;;;;;;5026020;28;20041;-62
2022/12/15 10:43:44;;;;;;;0.55;0.55;;;3.00;99.90;;;;;;5028007;28;20049;-62
2022/12/15 10:46:17;;;;;;;0.10;0.10;;;3.00;99.90;;;;;;5027880;28;20049;-62
2022/12/15 10:48:58;;;;;;;0.57;0.57;;;3.00;99.90;;;;;;5028754;28;20087;-61
2022/12/15 10:51:35;;;;;;;0.10;0.10;;;3.10;99.90;;;;;;5027783;28;20366;-62
2022/12/15 10:54:08;;;;;;;0.20;0.20;;;3.10;99.90;;;;;;5027097;28;20124;-62
2022/12/15 10:56:44;;;;;;;0.17;0.17;;;3.20;99.90;;;;;;5023543;28;20052;-63
2022/12/15 10:59:22;;;;;;;0.10;0.10;;;3.20;99.90;;;;;;5027422;28;20033;-63
2022/12/15 11:01:48;;;;;;;0.10;0.10;;;3.30;99.90;;;;;;5027655;28;20455;-63
2022/12/15 11:04:29;;;;;;;0.10;0.10;;;3.30;99.90;;;;;;5024408;28;20072;-63
2022/12/15 11:07:00;;;;;;;0.10;0.10;;;3.30;99.90;;;;;;5027628;28;20115;-63
2022/12/15 11:09:33;;;;;;;0.65;0.65;;;3.30;99.90;;;;;;5027849;28;20088;-63
2022/12/15 11:14:46;;;;;;;0.35;0.35;;;3.30;99.90;;;;;;5026191;28;20049;-63
2022/12/15 11:17:22;;;;;;;0.55;0.55;;;3.40;99.90;;;;;;5025099;28;20041;-63
2022/12/15 11:20:01;;;;;;;0.10;0.10;;;3.40;99.90;;;;;;5022542;28;20300;-63
2022/12/15 11:22:32;;;;;;;0.20;0.20;;;3.50;99.90;;;;;;5015097;28;20497;-63
2022/12/15 11:25:14;;;;;;;0.10;0.10;;;3.50;99.90;;;;;;5025149;28;20045;-64
2022/12/15 11:27:43;;;;;;;0.10;0.10;;;3.60;99.90;;;;;;5021382;28;20045;-63
2022/12/15 11:30:15;;;;;;;0.28;0.28;;;3.60;99.90;;;;;;5026926;28;20044;-63
2022/12/15 11:32:46;;;;;;;0.20;0.20;;;3.70;99.90;;;;;;5020916;28;20404;-63
2022/12/15 11:35:19;;;;;;;0.10;0.10;;;3.70;99.90;;;;;;5016470;28;20057;-63
2022/12/15 11:37:50;;;;;;;0.17;0.17;;;3.80;99.90;;;;;;5025712;28;20066;-63
2022/12/15 11:40:25;;;;;;;0.20;0.20;;;4.00;99.90;;;;;;5027514;28;20049;-63
2022/12/15 11:43:07;;;;;;;0.17;0.17;;;4.10;99.90;;;;;;5028002;28;20056;-63
2022/12/15 11:46:11;;;;;;;0.10;0.10;;;4.30;99.90;;;;;;5025903;28;20536;-63
2022/12/15 11:48:56;;;;;;;0.17;0.17;;;4.40;99.90;;;;;;5026265;28;20104;-63
2022/12/15 11:51:42;;;;;;;0.10;0.10;;;4.50;99.90;;;;;;5025191;28;20054;-63
2022/12/15 11:54:45;;;;;;;0.10;0.10;;;4.60;99.90;;;;;;5026809;28;20045;-63
2022/12/15 11:57:22;;;;;;;0.10;0.10;;;4.70;99.90;;;;;;5027342;28;20107;-64
2022/12/15 12:00:02;;;;;;;0.10;0.10;;;4.90;99.90;;;;;;5027598;28;20045;-63
2022/12/15 12:02:39;;;;;;;0.10;0.10;;;5.00;99.90;;;;;;5025712;28;20045;-63
2022/12/15 12:05:42;;;;;;;0.10;0.10;;;5.20;99.90;;;;;;5027597;28;20049;-63
2022/12/15 12:08:28;;;;;;;0.20;0.20;;;5.40;99.90;;;;;;5026763;28;20046;-64
2022/12/15 12:11:17;;;;;;;0.10;0.10;;;5.50;99.90;;;;;;5026026;28;20052;-64
2022/12/15 12:13:42;;;;;;;1.55;0.77;;;5.70;99.90;;;;;;5026564;28;20124;-64
2022/12/15 12:16:27;;;;;;;0.10;0.10;;;5.80;99.90;;;;;;5027598;28;20095;-64
2022/12/15 12:19:04;;;;;;;0.10;0.10;;;5.90;99.90;;;;;;5025493;28;20045;-64
2022/12/15 12:21:45;;;;;;;0.10;0.10;;;5.90;99.90;;;;;;5029881;28;20046;-65
2022/12/15 12:24:37;;;;;;;0.10;0.10;;;5.80;99.90;;;;;;5027868;28;20440;-65
2022/12/15 12:27:06;;;;;;;0.10;0.10;;;5.60;99.90;;;;;;5024308;28;20065;-64
2022/12/15 12:29:40;;;;;;;0.10;0.10;;;5.50;99.90;;;;;;5027347;28;20099;-65
2022/12/15 12:32:24;;;;;;;0.10;0.10;;;5.50;99.90;;;;;;5020731;28;20045;-65
2022/12/15 12:34:59;;;;;;;;;;;5.40;99.90;;;;;;5028291;28;20073;-64
2022/12/15 12:37:36;;;;;;;0.65;0.65;;;5.30;99.90;;;;;;5025554;28;19920;-64
2022/12/15 12:40:14;;;;;;;2.53;2.08;;;5.20;99.90;;;;;;5025509;28;20049;-64
2022/12/15 12:42:53;;;;;;;0.10;0.10;;;5.20;99.90;;;;;;5029697;28;20391;-64
2022/12/15 12:45:26;;;;;;;0.10;0.10;;;5.00;99.90;;;;;;5029452;28;20045;-64
2022/12/15 12:47:55;;;;;;;0.52;0.43;;;4.90;99.90;;;;;;5028802;28;20041;-64
2022/12/15 12:50:26;;;;;;;0.50;0.50;;;4.80;99.90;;;;;;5029043;28;20055;-64
2022/12/15 12:52:56;;;;;;;0.98;0.98;;;4.80;99.90;;;;;;5029659;28;20412;-65
2022/12/15 12:55:26;;;;;;;0.30;0.30;;;4.70;99.90;;;;;;5030240;28;20041;-65
2022/12/15 12:57:53;;;;;;;0.10;0.10;;;4.60;99.90;;;;;;5028525;28;20053;-65
2022/12/15 13:00:20;;;;;;;0.10;0.10;;;4.80;99.90;;;;;;5030791;28;20054;-65
2022/12/15 13:02:47;;;;;;;0.20;0.20;;;5.20;99.90;;;;;;5028706;28;20056;-64
2022/12/15 13:05:31;;;;;;;0.10;0.10;;;5.30;99.90;;;;;;5027606;28;20052;-65
2022/12/15 13:08:05;;;;;;;0.10;0.10;;;5.30;99.90;;;;;;5024059;28;20060;-65
2022/12/15 13:10:36;;;;;;;0.20;0.20;;;5.10;99.90;;;;;;5028090;28;20494;-64
2022/12/15 13:13:07;;;;;;;0.80;0.80;;;5.10;99.90;;;;;;5029986;28;20102;-64
2022/12/15 13:15:38;;;;;;;0.10;0.10;;;5.10;99.90;;;;;;5023005;28;20053;-64
2022/12/15 13:18:05;;;;;;;0.20;0.20;;;5.30;99.90;;;;;;5027174;28;20044;-64
2022/12/15 13:20:33;;;;;;;0.20;0.20;;;5.60;99.90;;;;;;5028059;28;20073;-65
2022/12/15 13:23:22;;;;;;;1.05;0.95;;;6.00;99.90;;;;;;5028411;28;20045;-64
2022/12/15 13:25:57;;;;;;;0.10;0.10;;;6.10;99.90;;;;;;5028798;28;20049;-63
2022/12/15 13:28:28;;;;;;;0.10;0.10;;;5.80;99.90;;;;;;5027892;28;20073;-65
2022/12/15 13:31:21;;;;;;;0.27;0.27;;;5.60;99.90;;;;;;5026778;28;20099;-64
2022/12/15 13:33:50;;;;;;;0.10;0.10;;;5.40;99.90;;;;;;5026442;28;20049;-64
2022/12/15 13:36:40;;;;;;;0.10;0.10;;;5.30;99.90;;;;;;5029738;28;20043;-67
2022/12/15 13:39:11;;;;;;;0.28;0.28;;;5.20;99.90;;;;;;5024853;28;20653;-64
2022/12/15 13:41:41;;;;;;;0.10;0.10;;;5.10;99.90;;;;;;5023784;28;20119;-64
2022/12/15 13:44:13;;;;;;;0.10;0.10;;;5.00;99.90;;;;;;5024939;28;20199;-64
2022/12/15 13:46:43;;;;;;;0.10;0.10;;;4.90;99.90;;;;;;5028620;28;20144;-64
2022/12/15 13:49:36;;;;;;;3.00;2.00;;;4.90;99.90;;;;;;5026767;28;20041;-64
2022/12/15 13:52:16;;;;;;;0.10;0.10;;;4.80;99.90;;;;;;5022511;28;20041;-64
2022/12/15 13:54:47;;;;;;;0.30;0.30;;;4.70;99.90;;;;;;5028709;28;20045;-64
2022/12/15 13:57:18;;;;;;;0.35;0.35;;;4.70;99.90;;;;;;5028494;28;20549;-65
2022/12/15 13:59:50;;;;;;;0.10;0.10;;;4.60;99.90;;;;;;5023975;28;20560;-65
2022/12/15 14:02:22;;;;;;;0.10;0.10;;;4.50;99.90;;;;;;5024084;28;20041;-66
2022/12/15 14:05:11;;;;;;;0.10;0.10;;;4.40;99.90;;;;;;5027092;28;20053;-66
2022/12/15 14:07:38;;;;;;;0.10;0.10;;;4.30;99.90;;;;;;5018855;28;20057;-66
2022/12/15 14:10:14;;;;;;;0.10;0.10;;;4.20;99.90;;;;;;5022699;28;20640;-66
2022/12/15 14:12:40;;;;;;;0.10;0.10;;;4.20;99.90;;;;;;5022110;28;20034;-65
2022/12/15 14:15:13;;;;;;;0.10;0.10;;;4.20;99.90;;;;;;5027032;28;20040;-65
2022/12/15 14:17:39;;;;;;;0.10;0.10;;;4.20;99.90;;;;;;5021438;28;20041;-65
2022/12/15 14:20:16;;;;;;;0.20;0.20;;;4.10;99.90;;;;;;5026788;28;20045;-64
2022/12/15 14:22:42;;;;;;;0.10;0.10;;;4.20;99.90;;;;;;5025792;28;20054;-65
2022/12/15 14:25:19;;;;;;;0.10;0.10;;;4.10;99.90;;;;;;5027522;28;20044;-65
2022/12/15 14:27:45;;;;;;;0.10;0.10;;;4.10;99.90;;;;;;5026701;28;20068;-65
2022/12/15 14:30:25;;;;;;;0.10;0.10;;;4.10;99.90;;;;;;5028845;28;20140;-66
2022/12/15 14:33:02;;;;;;;0.10;0.10;;;4.10;99.90;;;;;;5028928;28;20053;-66
2022/12/15 14:35:37;;;;;;;0.88;0.50;;;4.00;99.90;;;;;;5028304;28;20452;-66
2022/12/15 14:38:07;;;;;;;0.10;0.10;;;4.00;99.90;;;;;;5028396;28;20071;-66
2022/12/15 14:40:36;;;;;;;0.10;0.10;;;3.90;99.90;;;;;;5026706;28;20052;-66
2022/12/15 14:43:03;;;;;;;0.20;0.20;;;3.90;99.90;;;;;;5027974;28;20057;-66
2022/12/15 14:45:31;;;;;;;0.60;0.52;;;3.90;99.90;;;;;;5028013;28;20053;-66
2022/12/15 14:48:04;;;;;;;0.10;0.10;;;3.80;99.90;;;;;;5027082;28;20679;-66
2022/12/15 14:50:30;;;;;;;0.10;0.10;;;3.80;99.90;;;;;;5027661;28;20060;-66
2022/12/15 14:53:11;;;;;;;0.10;0.10;;;3.70;99.90;;;;;;5027767;28;20041;-66
2022/12/15 14:55:39;;;;;;;0.10;0.10;;;3.70;99.90;;;;;;5026885;28;20038;-66
2022/12/15 14:58:26;;;;;;;0.10;0.10;;;3.70;99.90;;;;;;5026629;28;20063;-66
2022/12/15 15:00:54;;;;;;;0.10;0.10;;;3.70;99.90;;;;;;5026146;28;20037;-66
2022/12/15 15:03:22;;;;;;;0.10;0.10;;;3.80;99.90;;;;;;5024333;28;20037;-66
2022/12/15 15:06:02;;;;;;;0.10;0.10;;;3.60;99.90;;;;;;5026409;28;20058;-66
2022/12/15 15:08:30;;;;;;;0.10;0.10;;;3.60;99.90;;;;;;5027773;28;20052;-66
2022/12/15 15:10:59;;;;;;;0.10;0.10;;;3.60;99.90;;;;;;5025498;28;20103;-66
2022/12/15 15:13:39;;;;;;;0.10;0.10;;;3.50;99.90;;;;;;5026895;28;20485;-66
2022/12/15 15:16:11;;;;;;;0.10;0.10;;;3.50;99.90;;;;;;5027378;28;20397;-66
2022/12/15 15:18:37;;;;;;;2.90;1.15;;;3.50;99.90;;;;;;5027423;28;20053;-66
2022/12/15 15:21:05;;;;;;;0.10;0.10;;;3.50;99.90;;;;;;5026092;28;20056;-65
2022/12/15 15:23:32;;;;;;;0.10;0.10;;;3.50;99.90;;;;;;5025504;28;20060;-66
2022/12/15 15:26:03;;;;;;;0.10;0.10;;;3.50;99.90;;;;;;5017703;28;20550;-66
2022/12/15 15:28:39;;;;;;;0.20;0.20;;;3.50;99.90;;;;;;5025212;28;20128;-65
2022/12/15 15:31:23;;;;;;;0.10;0.10;;;3.50;99.90;;;;;;5024824;28;20045;-66
2022/12/15 15:33:49;;;;;;;0.10;0.10;;;3.50;99.90;;;;;;5027661;28;20067;-66
2022/12/15 15:36:15;;;;;;;0.17;0.17;;;3.40;99.90;;;;;;5020911;28;20041;-66
2022/12/15 15:38:46;;;;;;;0.10;0.10;;;3.40;99.90;;;;;;5028259;28;20551;-66
2022/12/15 15:41:17;;;;;;;0.10;0.10;;;3.40;99.90;;;;;;5026054;28;20038;-66
2022/12/15 15:43:43;;;;;;;0.10;0.10;;;3.40;99.90;;;;;;5018640;28;20050;-65